sensor_id;sensor_type;location;lat;lon;timestamp;P1;durP1;ratioP1;P2;durP2;ratioP2
60700;SDS011;46541;49.894;10.886;2023-09-18T00:00:07;5.63;;;5.03;;
60700;SDS011;46541;49.894;10.886;2023-09-18T00:02:38;7.55;;;5.13;;
60700;SDS011;46541;49.894;10.886;2023-09-18T00:05:06;6.45;;;5.13;;
60700;SDS011;46541;49.894;10.886;2023-09-18T00:07:33;6.32;;;5.15;;
60700;SDS011;46541;49.894;10.886;2023-09-18T00:10:00;5.40;;;4.85;;
60700;SDS011;46541;49.894;10.886;2023-09-18T00:12:26;5.88;;;5.28;;
60700;SDS011;46541;49.894;10.886;2023-09-18T00:14:53;6.05;;;5.45;;
60700;SDS011;46541;49.894;10.886;2023-09-18T00:17:20;5.90;;;5.07;;
60700;SDS011;46541;49.894;10.886;2023-09-18T00:19:50;7.63;;;5.50;;
60700;SDS011;46541;49.894;10.886;2023-09-18T00:22:17;7.15;;;5.28;;
60700;SDS011;46541;49.894;10.886;2023-09-18T00:24:44;9.25;;;6.60;;
60700;SDS011;46541;49.894;10.886;2023-09-18T00:27:11;8.68;;;6.57;;
60700;SDS011;46541;49.894;10.886;2023-09-18T00:29:39;8.82;;;5.85;;
60700;SDS011;46541;49.894;10.886;2023-09-18T00:32:06;7.10;;;5.75;;
60700;SDS011;46541;49.894;10.886;2023-09-18T00:34:33;9.57;;;6.47;;
60700;SDS011;46541;49.894;10.886;2023-09-18T00:37:00;7.10;;;5.55;;
60700;SDS011;46541;49.894;10.886;2023-09-18T00:39:27;6.78;;;5.50;;
60700;SDS011;46541;49.894;10.886;2023-09-18T00:41:54;7.82;;;5.68;;
60700;SDS011;46541;49.894;10.886;2023-09-18T00:44:21;6.93;;;5.45;;
60700;SDS011;46541;49.894;10.886;2023-09-18T00:46:49;10.80;;;6.35;;
60700;SDS011;46541;49.894;10.886;2023-09-18T00:49:16;7.88;;;5.70;;
60700;SDS011;46541;49.894;10.886;2023-09-18T00:51:44;6.75;;;5.50;;
60700;SDS011;46541;49.894;10.886;2023-09-18T00:54:12;8.20;;;5.80;;
60700;SDS011;46541;49.894;10.886;2023-09-18T00:56:44;7.22;;;5.28;;
60700;SDS011;46541;49.894;10.886;2023-09-18T00:59:13;7.70;;;5.35;;
60700;SDS011;46541;49.894;10.886;2023-09-18T01:01:40;8.48;;;5.65;;
60700;SDS011;46541;49.894;10.886;2023-09-18T01:04:08;6.82;;;6.10;;
60700;SDS011;46541;49.894;10.886;2023-09-18T01:06:36;9.00;;;5.70;;
60700;SDS011;46541;49.894;10.886;2023-09-18T01:09:03;7.45;;;6.28;;
60700;SDS011;46541;49.894;10.886;2023-09-18T01:11:41;10.65;;;5.72;;
60700;SDS011;46541;49.894;10.886;2023-09-18T01:16:58;8.40;;;6.40;;
60700;SDS011;46541;49.894;10.886;2023-09-18T01:22:07;9.70;;;6.15;;
60700;SDS011;46541;49.894;10.886;2023-09-18T01:24:36;8.10;;;6.13;;
60700;SDS011;46541;49.894;10.886;2023-09-18T01:27:06;10.13;;;6.25;;
60700;SDS011;46541;49.894;10.886;2023-09-18T01:32:07;7.05;;;5.63;;
60700;SDS011;46541;49.894;10.886;2023-09-18T01:34:35;7.78;;;6.68;;
60700;SDS011;46541;49.894;10.886;2023-09-18T01:37:05;9.40;;;6.32;;
60700;SDS011;46541;49.894;10.886;2023-09-18T01:39:33;7.15;;;6.18;;
60700;SDS011;46541;49.894;10.886;2023-09-18T01:42:02;8.57;;;6.25;;
60700;SDS011;46541;49.894;10.886;2023-09-18T01:44:31;8.80;;;6.22;;
60700;SDS011;46541;49.894;10.886;2023-09-18T01:47:00;7.47;;;6.30;;
60700;SDS011;46541;49.894;10.886;2023-09-18T01:49:30;8.38;;;6.15;;
60700;SDS011;46541;49.894;10.886;2023-09-18T01:52:01;9.13;;;6.05;;
60700;SDS011;46541;49.894;10.886;2023-09-18T01:54:29;7.95;;;5.68;;
60700;SDS011;46541;49.894;10.886;2023-09-18T01:56:56;9.70;;;6.28;;
60700;SDS011;46541;49.894;10.886;2023-09-18T01:59:23;6.70;;;5.72;;
60700;SDS011;46541;49.894;10.886;2023-09-18T02:01:51;10.70;;;6.55;;
60700;SDS011;46541;49.894;10.886;2023-09-18T02:04:20;7.07;;;6.38;;
60700;SDS011;46541;49.894;10.886;2023-09-18T02:07:07;9.82;;;6.85;;
60700;SDS011;46541;49.894;10.886;2023-09-18T02:09:35;8.65;;;6.53;;
60700;SDS011;46541;49.894;10.886;2023-09-18T02:12:01;13.10;;;6.28;;
60700;SDS011;46541;49.894;10.886;2023-09-18T02:14:29;10.18;;;6.53;;
60700;SDS011;46541;49.894;10.886;2023-09-18T02:16:56;10.35;;;6.70;;
60700;SDS011;46541;49.894;10.886;2023-09-18T02:19:23;10.93;;;5.95;;
60700;SDS011;46541;49.894;10.886;2023-09-18T02:21:50;11.23;;;6.72;;
60700;SDS011;46541;49.894;10.886;2023-09-18T02:24:17;8.38;;;6.90;;
60700;SDS011;46541;49.894;10.886;2023-09-18T02:26:43;12.55;;;6.93;;
60700;SDS011;46541;49.894;10.886;2023-09-18T02:29:11;7.45;;;6.63;;
60700;SDS011;46541;49.894;10.886;2023-09-18T02:31:40;7.18;;;6.20;;
60700;SDS011;46541;49.894;10.886;2023-09-18T02:34:07;11.05;;;6.72;;
60700;SDS011;46541;49.894;10.886;2023-09-18T02:36:35;15.85;;;6.97;;
60700;SDS011;46541;49.894;10.886;2023-09-18T02:39:02;9.60;;;6.88;;
60700;SDS011;46541;49.894;10.886;2023-09-18T02:41:29;9.02;;;6.68;;
60700;SDS011;46541;49.894;10.886;2023-09-18T02:43:56;8.82;;;6.70;;
60700;SDS011;46541;49.894;10.886;2023-09-18T02:46:22;12.15;;;6.75;;
60700;SDS011;46541;49.894;10.886;2023-09-18T02:48:49;12.68;;;7.60;;
60700;SDS011;46541;49.894;10.886;2023-09-18T02:51:17;11.10;;;7.00;;
60700;SDS011;46541;49.894;10.886;2023-09-18T02:53:43;9.77;;;6.45;;
60700;SDS011;46541;49.894;10.886;2023-09-18T02:56:10;9.45;;;6.80;;
60700;SDS011;46541;49.894;10.886;2023-09-18T02:58:37;7.90;;;6.13;;
60700;SDS011;46541;49.894;10.886;2023-09-18T03:01:04;9.85;;;6.90;;
60700;SDS011;46541;49.894;10.886;2023-09-18T03:03:33;10.07;;;7.00;;
60700;SDS011;46541;49.894;10.886;2023-09-18T03:06:04;10.90;;;6.50;;
60700;SDS011;46541;49.894;10.886;2023-09-18T03:08:32;12.23;;;6.57;;
60700;SDS011;46541;49.894;10.886;2023-09-18T03:10:59;9.15;;;6.32;;
60700;SDS011;46541;49.894;10.886;2023-09-18T03:13:27;10.88;;;6.28;;
60700;SDS011;46541;49.894;10.886;2023-09-18T03:15:54;8.38;;;5.88;;
60700;SDS011;46541;49.894;10.886;2023-09-18T03:18:22;10.90;;;6.32;;
60700;SDS011;46541;49.894;10.886;2023-09-18T03:20:49;8.20;;;6.07;;
60700;SDS011;46541;49.894;10.886;2023-09-18T03:23:16;6.60;;;5.72;;
60700;SDS011;46541;49.894;10.886;2023-09-18T03:25:43;9.65;;;7.80;;
60700;SDS011;46541;49.894;10.886;2023-09-18T03:28:16;10.80;;;7.57;;
60700;SDS011;46541;49.894;10.886;2023-09-18T03:30:44;7.80;;;6.47;;
60700;SDS011;46541;49.894;10.886;2023-09-18T03:33:11;12.93;;;7.18;;
60700;SDS011;46541;49.894;10.886;2023-09-18T03:35:51;8.90;;;6.35;;
60700;SDS011;46541;49.894;10.886;2023-09-18T03:38:20;6.85;;;5.93;;
60700;SDS011;46541;49.894;10.886;2023-09-18T03:40:47;10.48;;;8.10;;
60700;SDS011;46541;49.894;10.886;2023-09-18T03:43:14;7.75;;;6.40;;
60700;SDS011;46541;49.894;10.886;2023-09-18T03:45:41;6.88;;;5.38;;
60700;SDS011;46541;49.894;10.886;2023-09-18T03:48:08;8.55;;;6.57;;
60700;SDS011;46541;49.894;10.886;2023-09-18T03:50:36;8.95;;;7.97;;
60700;SDS011;46541;49.894;10.886;2023-09-18T03:53:03;11.10;;;7.47;;
60700;SDS011;46541;49.894;10.886;2023-09-18T03:55:30;8.43;;;6.93;;
60700;SDS011;46541;49.894;10.886;2023-09-18T03:57:56;9.10;;;6.47;;
60700;SDS011;46541;49.894;10.886;2023-09-18T04:00:23;8.20;;;6.55;;
60700;SDS011;46541;49.894;10.886;2023-09-18T04:02:50;10.25;;;6.63;;
60700;SDS011;46541;49.894;10.886;2023-09-18T04:05:17;10.20;;;7.78;;
60700;SDS011;46541;49.894;10.886;2023-09-18T04:07:45;11.73;;;7.75;;
60700;SDS011;46541;49.894;10.886;2023-09-18T04:10:13;7.50;;;6.47;;
60700;SDS011;46541;49.894;10.886;2023-09-18T04:12:49;9.10;;;6.63;;
60700;SDS011;46541;49.894;10.886;2023-09-18T04:15:19;12.27;;;6.88;;
60700;SDS011;46541;49.894;10.886;2023-09-18T04:17:47;7.40;;;6.07;;
60700;SDS011;46541;49.894;10.886;2023-09-18T04:20:14;7.18;;;6.40;;
60700;SDS011;46541;49.894;10.886;2023-09-18T04:22:45;6.57;;;5.88;;
60700;SDS011;46541;49.894;10.886;2023-09-18T04:25:16;9.23;;;5.80;;
60700;SDS011;46541;49.894;10.886;2023-09-18T04:27:45;7.13;;;6.25;;
60700;SDS011;46541;49.894;10.886;2023-09-18T04:30:13;6.57;;;5.40;;
60700;SDS011;46541;49.894;10.886;2023-09-18T04:32:40;7.03;;;5.45;;
60700;SDS011;46541;49.894;10.886;2023-09-18T04:35:08;11.77;;;6.30;;
60700;SDS011;46541;49.894;10.886;2023-09-18T04:37:36;8.50;;;6.18;;
60700;SDS011;46541;49.894;10.886;2023-09-18T04:40:07;7.97;;;6.32;;
60700;SDS011;46541;49.894;10.886;2023-09-18T04:42:37;6.85;;;5.80;;
60700;SDS011;46541;49.894;10.886;2023-09-18T04:45:06;8.88;;;6.97;;
60700;SDS011;46541;49.894;10.886;2023-09-18T04:47:33;12.68;;;7.45;;
60700;SDS011;46541;49.894;10.886;2023-09-18T04:50:00;12.43;;;7.40;;
60700;SDS011;46541;49.894;10.886;2023-09-18T04:52:26;13.57;;;6.95;;
60700;SDS011;46541;49.894;10.886;2023-09-18T04:54:54;13.02;;;7.07;;
60700;SDS011;46541;49.894;10.886;2023-09-18T04:57:20;11.00;;;7.38;;
60700;SDS011;46541;49.894;10.886;2023-09-18T04:59:48;11.07;;;7.35;;
60700;SDS011;46541;49.894;10.886;2023-09-18T05:02:35;12.60;;;7.55;;
60700;SDS011;46541;49.894;10.886;2023-09-18T05:05:02;15.05;;;7.28;;
60700;SDS011;46541;49.894;10.886;2023-09-18T05:07:30;12.65;;;8.13;;
60700;SDS011;46541;49.894;10.886;2023-09-18T05:09:58;14.43;;;6.85;;
60700;SDS011;46541;49.894;10.886;2023-09-18T05:12:25;9.02;;;6.55;;
60700;SDS011;46541;49.894;10.886;2023-09-18T05:14:52;11.20;;;6.80;;
60700;SDS011;46541;49.894;10.886;2023-09-18T05:17:18;12.15;;;7.60;;
60700;SDS011;46541;49.894;10.886;2023-09-18T05:19:45;10.27;;;6.55;;
60700;SDS011;46541;49.894;10.886;2023-09-18T05:22:12;9.18;;;6.45;;
60700;SDS011;46541;49.894;10.886;2023-09-18T05:24:39;8.73;;;7.00;;
60700;SDS011;46541;49.894;10.886;2023-09-18T05:27:06;9.43;;;7.30;;
60700;SDS011;46541;49.894;10.886;2023-09-18T05:29:34;13.18;;;7.18;;
60700;SDS011;46541;49.894;10.886;2023-09-18T05:32:02;11.00;;;7.22;;
60700;SDS011;46541;49.894;10.886;2023-09-18T05:34:30;12.30;;;6.40;;
60700;SDS011;46541;49.894;10.886;2023-09-18T05:36:58;8.70;;;6.43;;
60700;SDS011;46541;49.894;10.886;2023-09-18T05:39:24;12.45;;;7.15;;
60700;SDS011;46541;49.894;10.886;2023-09-18T05:41:51;8.52;;;6.47;;
60700;SDS011;46541;49.894;10.886;2023-09-18T05:44:18;9.75;;;6.25;;
60700;SDS011;46541;49.894;10.886;2023-09-18T05:46:45;10.25;;;6.32;;
60700;SDS011;46541;49.894;10.886;2023-09-18T05:49:12;10.90;;;6.78;;
60700;SDS011;46541;49.894;10.886;2023-09-18T05:51:39;8.10;;;6.03;;
60700;SDS011;46541;49.894;10.886;2023-09-18T05:54:05;8.27;;;6.10;;
60700;SDS011;46541;49.894;10.886;2023-09-18T05:56:33;8.68;;;6.75;;
60700;SDS011;46541;49.894;10.886;2023-09-18T05:59:00;16.30;;;6.93;;
60700;SDS011;46541;49.894;10.886;2023-09-18T06:01:27;6.47;;;5.57;;
60700;SDS011;46541;49.894;10.886;2023-09-18T06:03:54;12.85;;;6.40;;
60700;SDS011;46541;49.894;10.886;2023-09-18T06:06:21;13.85;;;6.32;;
60700;SDS011;46541;49.894;10.886;2023-09-18T06:08:48;7.90;;;5.75;;
60700;SDS011;46541;49.894;10.886;2023-09-18T06:11:14;13.35;;;6.50;;
60700;SDS011;46541;49.894;10.886;2023-09-18T06:13:41;7.90;;;6.20;;
60700;SDS011;46541;49.894;10.886;2023-09-18T06:16:08;7.18;;;5.82;;
60700;SDS011;46541;49.894;10.886;2023-09-18T06:18:35;11.57;;;6.00;;
60700;SDS011;46541;49.894;10.886;2023-09-18T06:21:04;19.95;;;6.57;;
60700;SDS011;46541;49.894;10.886;2023-09-18T06:23:31;10.15;;;6.45;;
60700;SDS011;46541;49.894;10.886;2023-09-18T06:25:59;9.68;;;5.45;;
60700;SDS011;46541;49.894;10.886;2023-09-18T06:28:26;11.63;;;5.65;;
60700;SDS011;46541;49.894;10.886;2023-09-18T06:30:52;7.57;;;6.15;;
60700;SDS011;46541;49.894;10.886;2023-09-18T06:33:20;9.35;;;6.18;;
60700;SDS011;46541;49.894;10.886;2023-09-18T06:35:47;8.00;;;5.70;;
60700;SDS011;46541;49.894;10.886;2023-09-18T06:38:14;7.05;;;5.38;;
60700;SDS011;46541;49.894;10.886;2023-09-18T06:40:41;5.63;;;4.80;;
60700;SDS011;46541;49.894;10.886;2023-09-18T06:43:08;5.88;;;5.28;;
60700;SDS011;46541;49.894;10.886;2023-09-18T06:45:35;11.45;;;5.93;;
60700;SDS011;46541;49.894;10.886;2023-09-18T06:48:04;10.98;;;5.65;;
60700;SDS011;46541;49.894;10.886;2023-09-18T06:50:31;10.73;;;5.88;;
60700;SDS011;46541;49.894;10.886;2023-09-18T06:52:58;8.77;;;5.85;;
60700;SDS011;46541;49.894;10.886;2023-09-18T06:55:25;11.60;;;5.93;;
60700;SDS011;46541;49.894;10.886;2023-09-18T06:57:51;9.00;;;5.82;;
60700;SDS011;46541;49.894;10.886;2023-09-18T07:00:19;7.00;;;5.57;;
60700;SDS011;46541;49.894;10.886;2023-09-18T07:02:47;10.82;;;5.80;;
60700;SDS011;46541;49.894;10.886;2023-09-18T07:05:16;7.95;;;5.35;;
60700;SDS011;46541;49.894;10.886;2023-09-18T07:07:43;8.73;;;6.30;;
60700;SDS011;46541;49.894;10.886;2023-09-18T07:10:10;7.78;;;6.22;;
60700;SDS011;46541;49.894;10.886;2023-09-18T07:12:37;8.77;;;6.07;;
60700;SDS011;46541;49.894;10.886;2023-09-18T07:15:03;10.07;;;6.18;;
60700;SDS011;46541;49.894;10.886;2023-09-18T07:17:31;9.57;;;6.25;;
60700;SDS011;46541;49.894;10.886;2023-09-18T07:19:59;10.20;;;6.10;;
60700;SDS011;46541;49.894;10.886;2023-09-18T07:22:26;12.30;;;6.35;;
60700;SDS011;46541;49.894;10.886;2023-09-18T07:24:56;8.77;;;6.10;;
60700;SDS011;46541;49.894;10.886;2023-09-18T07:27:23;8.80;;;5.55;;
60700;SDS011;46541;49.894;10.886;2023-09-18T07:29:49;6.93;;;5.28;;
60700;SDS011;46541;49.894;10.886;2023-09-18T07:32:16;11.15;;;5.75;;
60700;SDS011;46541;49.894;10.886;2023-09-18T07:35:02;7.80;;;5.83;;
60700;SDS011;46541;49.894;10.886;2023-09-18T07:37:33;9.93;;;5.53;;
60700;SDS011;46541;49.894;10.886;2023-09-18T07:40:02;9.23;;;5.85;;
60700;SDS011;46541;49.894;10.886;2023-09-18T07:42:29;9.95;;;5.25;;
60700;SDS011;46541;49.894;10.886;2023-09-18T07:44:56;9.85;;;5.63;;
60700;SDS011;46541;49.894;10.886;2023-09-18T07:47:24;10.65;;;5.82;;
60700;SDS011;46541;49.894;10.886;2023-09-18T07:49:52;12.35;;;5.15;;
60700;SDS011;46541;49.894;10.886;2023-09-18T07:52:20;9.65;;;5.72;;
60700;SDS011;46541;49.894;10.886;2023-09-18T07:54:47;7.60;;;5.40;;
60700;SDS011;46541;49.894;10.886;2023-09-18T07:57:15;8.82;;;5.25;;
60700;SDS011;46541;49.894;10.886;2023-09-18T07:59:42;8.32;;;5.03;;
60700;SDS011;46541;49.894;10.886;2023-09-18T08:02:09;8.52;;;5.25;;
60700;SDS011;46541;49.894;10.886;2023-09-18T08:04:36;15.00;;;6.30;;
60700;SDS011;46541;49.894;10.886;2023-09-18T08:07:03;11.00;;;5.03;;
60700;SDS011;46541;49.894;10.886;2023-09-18T08:09:32;12.45;;;5.75;;
60700;SDS011;46541;49.894;10.886;2023-09-18T08:12:02;7.75;;;5.93;;
60700;SDS011;46541;49.894;10.886;2023-09-18T08:14:29;10.93;;;6.05;;
60700;SDS011;46541;49.894;10.886;2023-09-18T08:16:57;10.88;;;5.55;;
60700;SDS011;46541;49.894;10.886;2023-09-18T08:19:25;14.98;;;7.00;;
60700;SDS011;46541;49.894;10.886;2023-09-18T08:21:53;9.63;;;5.75;;
60700;SDS011;46541;49.894;10.886;2023-09-18T08:24:20;8.63;;;6.03;;
60700;SDS011;46541;49.894;10.886;2023-09-18T08:26:48;10.40;;;5.60;;
60700;SDS011;46541;49.894;10.886;2023-09-18T08:29:15;9.32;;;5.05;;
60700;SDS011;46541;49.894;10.886;2023-09-18T08:31:42;7.10;;;5.00;;
60700;SDS011;46541;49.894;10.886;2023-09-18T08:34:09;5.70;;;5.00;;
60700;SDS011;46541;49.894;10.886;2023-09-18T08:36:36;7.65;;;4.95;;
60700;SDS011;46541;49.894;10.886;2023-09-18T08:39:02;5.75;;;5.03;;
60700;SDS011;46541;49.894;10.886;2023-09-18T08:41:33;7.78;;;5.35;;
60700;SDS011;46541;49.894;10.886;2023-09-18T08:44:04;10.63;;;4.90;;
60700;SDS011;46541;49.894;10.886;2023-09-18T08:46:33;8.60;;;5.13;;
60700;SDS011;46541;49.894;10.886;2023-09-18T08:49:00;9.15;;;4.55;;
60700;SDS011;46541;49.894;10.886;2023-09-18T08:51:28;7.20;;;4.43;;
60700;SDS011;46541;49.894;10.886;2023-09-18T08:53:55;7.43;;;4.70;;
60700;SDS011;46541;49.894;10.886;2023-09-18T08:56:23;9.02;;;4.60;;
60700;SDS011;46541;49.894;10.886;2023-09-18T08:58:50;6.75;;;4.65;;
60700;SDS011;46541;49.894;10.886;2023-09-18T09:01:19;6.65;;;4.50;;
60700;SDS011;46541;49.894;10.886;2023-09-18T09:03:47;10.05;;;5.28;;
60700;SDS011;46541;49.894;10.886;2023-09-18T09:06:14;11.00;;;8.32;;
60700;SDS011;46541;49.894;10.886;2023-09-18T09:08:41;10.15;;;5.38;;
60700;SDS011;46541;49.894;10.886;2023-09-18T09:11:07;11.20;;;6.47;;
60700;SDS011;46541;49.894;10.886;2023-09-18T09:13:34;8.95;;;5.07;;
60700;SDS011;46541;49.894;10.886;2023-09-18T09:16:12;6.72;;;4.97;;
60700;SDS011;46541;49.894;10.886;2023-09-18T09:18:49;11.63;;;5.13;;
60700;SDS011;46541;49.894;10.886;2023-09-18T09:21:18;7.30;;;4.95;;
60700;SDS011;46541;49.894;10.886;2023-09-18T09:23:46;11.70;;;5.53;;
60700;SDS011;46541;49.894;10.886;2023-09-18T09:26:20;8.38;;;4.35;;
60700;SDS011;46541;49.894;10.886;2023-09-18T09:28:48;9.75;;;5.40;;
60700;SDS011;46541;49.894;10.886;2023-09-18T09:31:24;7.30;;;4.57;;
60700;SDS011;46541;49.894;10.886;2023-09-18T09:33:56;9.25;;;4.00;;
60700;SDS011;46541;49.894;10.886;2023-09-18T09:36:24;8.20;;;4.95;;
60700;SDS011;46541;49.894;10.886;2023-09-18T09:38:57;5.43;;;3.40;;
60700;SDS011;46541;49.894;10.886;2023-09-18T09:41:25;7.88;;;3.40;;
60700;SDS011;46541;49.894;10.886;2023-09-18T09:43:56;11.15;;;3.20;;
60700;SDS011;46541;49.894;10.886;2023-09-18T09:46:23;14.95;;;8.55;;
60700;SDS011;46541;49.894;10.886;2023-09-18T09:49:06;6.95;;;3.10;;
60700;SDS011;46541;49.894;10.886;2023-09-18T09:51:33;8.07;;;3.38;;
60700;SDS011;46541;49.894;10.886;2023-09-18T09:54:03;12.88;;;3.50;;
60700;SDS011;46541;49.894;10.886;2023-09-18T09:59:12;4.63;;;2.63;;
60700;SDS011;46541;49.894;10.886;2023-09-18T10:01:40;11.93;;;2.95;;
60700;SDS011;46541;49.894;10.886;2023-09-18T10:04:14;5.68;;;3.50;;
60700;SDS011;46541;49.894;10.886;2023-09-18T10:06:44;6.70;;;3.35;;
60700;SDS011;46541;49.894;10.886;2023-09-18T10:09:16;4.72;;;2.30;;
60700;SDS011;46541;49.894;10.886;2023-09-18T10:11:45;7.00;;;2.55;;
60700;SDS011;46541;49.894;10.886;2023-09-18T10:14:16;8.15;;;2.80;;
60700;SDS011;46541;49.894;10.886;2023-09-18T10:16:53;8.13;;;2.95;;
60700;SDS011;46541;49.894;10.886;2023-09-18T10:22:21;10.00;;;2.58;;
60700;SDS011;46541;49.894;10.886;2023-09-18T10:24:57;7.03;;;2.72;;
60700;SDS011;46541;49.894;10.886;2023-09-18T10:27:36;9.75;;;3.03;;
60700;SDS011;46541;49.894;10.886;2023-09-18T10:30:06;5.57;;;2.35;;
60700;SDS011;46541;49.894;10.886;2023-09-18T10:32:40;8.95;;;2.50;;
60700;SDS011;46541;49.894;10.886;2023-09-18T10:35:07;10.48;;;3.47;;
60700;SDS011;46541;49.894;10.886;2023-09-18T10:37:36;11.70;;;2.35;;
60700;SDS011;46541;49.894;10.886;2023-09-18T10:40:07;4.82;;;2.38;;
60700;SDS011;46541;49.894;10.886;2023-09-18T10:42:37;6.35;;;1.70;;
60700;SDS011;46541;49.894;10.886;2023-09-18T10:45:06;7.65;;;1.58;;
60700;SDS011;46541;49.894;10.886;2023-09-18T10:47:40;7.22;;;2.13;;
60700;SDS011;46541;49.894;10.886;2023-09-18T10:50:11;8.80;;;1.80;;
60700;SDS011;46541;49.894;10.886;2023-09-18T10:52:42;5.88;;;1.63;;
60700;SDS011;46541;49.894;10.886;2023-09-18T10:55:13;6.00;;;1.75;;
60700;SDS011;46541;49.894;10.886;2023-09-18T10:57:50;4.57;;;1.58;;
60700;SDS011;46541;49.894;10.886;2023-09-18T11:00:18;4.30;;;1.77;;
60700;SDS011;46541;49.894;10.886;2023-09-18T11:02:49;6.80;;;1.90;;
60700;SDS011;46541;49.894;10.886;2023-09-18T11:05:32;9.52;;;1.70;;
60700;SDS011;46541;49.894;10.886;2023-09-18T11:11:01;6.28;;;2.08;;
60700;SDS011;46541;49.894;10.886;2023-09-18T11:13:38;6.30;;;1.30;;
60700;SDS011;46541;49.894;10.886;2023-09-18T11:21:25;5.10;;;1.77;;
60700;SDS011;46541;49.894;10.886;2023-09-18T11:24:02;3.97;;;1.33;;
60700;SDS011;46541;49.894;10.886;2023-09-18T11:26:39;2.70;;;1.30;;
60700;SDS011;46541;49.894;10.886;2023-09-18T11:29:09;8.40;;;1.30;;
60700;SDS011;46541;49.894;10.886;2023-09-18T11:31:59;5.13;;;1.70;;
60700;SDS011;46541;49.894;10.886;2023-09-18T11:34:31;11.52;;;2.58;;
60700;SDS011;46541;49.894;10.886;2023-09-18T11:37:01;6.75;;;1.60;;
60700;SDS011;46541;49.894;10.886;2023-09-18T11:39:45;7.18;;;1.70;;
60700;SDS011;46541;49.894;10.886;2023-09-18T11:42:17;5.95;;;1.40;;
60700;SDS011;46541;49.894;10.886;2023-09-18T11:44:46;4.75;;;1.42;;
60700;SDS011;46541;49.894;10.886;2023-09-18T11:47:16;5.45;;;1.48;;
60700;SDS011;46541;49.894;10.886;2023-09-18T11:52:19;6.60;;;1.65;;
60700;SDS011;46541;49.894;10.886;2023-09-18T11:54:48;10.57;;;2.10;;
60700;SDS011;46541;49.894;10.886;2023-09-18T11:57:16;3.72;;;1.85;;
60700;SDS011;46541;49.894;10.886;2023-09-18T11:59:44;5.85;;;2.47;;
60700;SDS011;46541;49.894;10.886;2023-09-18T12:02:24;7.85;;;1.77;;
60700;SDS011;46541;49.894;10.886;2023-09-18T12:04:54;9.88;;;2.63;;
60700;SDS011;46541;49.894;10.886;2023-09-18T12:07:21;7.93;;;1.95;;
60700;SDS011;46541;49.894;10.886;2023-09-18T12:09:49;7.25;;;1.88;;
60700;SDS011;46541;49.894;10.886;2023-09-18T12:12:15;9.45;;;2.15;;
60700;SDS011;46541;49.894;10.886;2023-09-18T12:14:44;5.32;;;2.22;;
60700;SDS011;46541;49.894;10.886;2023-09-18T12:17:17;5.43;;;1.90;;
60700;SDS011;46541;49.894;10.886;2023-09-18T12:19:53;6.78;;;2.20;;
60700;SDS011;46541;49.894;10.886;2023-09-18T12:22:24;6.80;;;2.17;;
60700;SDS011;46541;49.894;10.886;2023-09-18T12:24:52;5.47;;;1.60;;
60700;SDS011;46541;49.894;10.886;2023-09-18T12:27:19;4.15;;;1.67;;
60700;SDS011;46541;49.894;10.886;2023-09-18T12:29:46;7.28;;;2.10;;
60700;SDS011;46541;49.894;10.886;2023-09-18T12:32:13;6.30;;;2.15;;
60700;SDS011;46541;49.894;10.886;2023-09-18T12:34:40;6.78;;;1.80;;
60700;SDS011;46541;49.894;10.886;2023-09-18T12:37:08;5.93;;;2.30;;
60700;SDS011;46541;49.894;10.886;2023-09-18T12:39:38;12.32;;;2.83;;
60700;SDS011;46541;49.894;10.886;2023-09-18T12:42:04;5.60;;;2.28;;
60700;SDS011;46541;49.894;10.886;2023-09-18T12:44:32;10.98;;;2.42;;
60700;SDS011;46541;49.894;10.886;2023-09-18T12:46:59;8.73;;;2.33;;
60700;SDS011;46541;49.894;10.886;2023-09-18T12:49:26;8.23;;;2.67;;
60700;SDS011;46541;49.894;10.886;2023-09-18T12:51:58;9.63;;;2.78;;
60700;SDS011;46541;49.894;10.886;2023-09-18T12:57:25;8.07;;;2.10;;
60700;SDS011;46541;49.894;10.886;2023-09-18T12:59:52;7.10;;;1.55;;
60700;SDS011;46541;49.894;10.886;2023-09-18T13:02:20;5.35;;;1.67;;
60700;SDS011;46541;49.894;10.886;2023-09-18T13:04:51;5.95;;;1.85;;
60700;SDS011;46541;49.894;10.886;2023-09-18T13:07:19;4.05;;;1.65;;
60700;SDS011;46541;49.894;10.886;2023-09-18T13:09:59;9.50;;;2.35;;
60700;SDS011;46541;49.894;10.886;2023-09-18T13:15:07;9.57;;;2.00;;
60700;SDS011;46541;49.894;10.886;2023-09-18T13:17:42;8.43;;;1.83;;
60700;SDS011;46541;49.894;10.886;2023-09-18T13:20:12;15.15;;;2.22;;
60700;SDS011;46541;49.894;10.886;2023-09-18T13:22:49;8.80;;;1.92;;
60700;SDS011;46541;49.894;10.886;2023-09-18T13:25:20;5.38;;;1.42;;
60700;SDS011;46541;49.894;10.886;2023-09-18T13:27:51;4.80;;;1.73;;
60700;SDS011;46541;49.894;10.886;2023-09-18T13:30:19;7.95;;;2.10;;
60700;SDS011;46541;49.894;10.886;2023-09-18T13:32:48;5.35;;;1.77;;
60700;SDS011;46541;49.894;10.886;2023-09-18T13:35:16;8.45;;;1.75;;
60700;SDS011;46541;49.894;10.886;2023-09-18T13:37:44;5.18;;;1.95;;
60700;SDS011;46541;49.894;10.886;2023-09-18T13:40:11;7.70;;;1.90;;
60700;SDS011;46541;49.894;10.886;2023-09-18T13:42:38;8.75;;;2.72;;
60700;SDS011;46541;49.894;10.886;2023-09-18T13:45:05;6.13;;;2.10;;
60700;SDS011;46541;49.894;10.886;2023-09-18T13:47:33;7.05;;;1.95;;
60700;SDS011;46541;49.894;10.886;2023-09-18T13:50:01;4.22;;;1.88;;
60700;SDS011;46541;49.894;10.886;2023-09-18T13:52:31;4.55;;;1.70;;
60700;SDS011;46541;49.894;10.886;2023-09-18T13:54:59;7.43;;;1.63;;
60700;SDS011;46541;49.894;10.886;2023-09-18T13:57:26;5.60;;;1.80;;
60700;SDS011;46541;49.894;10.886;2023-09-18T13:59:53;5.20;;;1.60;;
60700;SDS011;46541;49.894;10.886;2023-09-18T14:02:20;7.78;;;1.95;;
60700;SDS011;46541;49.894;10.886;2023-09-18T14:04:47;4.07;;;1.67;;
60700;SDS011;46541;49.894;10.886;2023-09-18T14:07:15;5.55;;;1.88;;
60700;SDS011;46541;49.894;10.886;2023-09-18T14:09:42;6.93;;;1.67;;
60700;SDS011;46541;49.894;10.886;2023-09-18T14:12:08;7.60;;;1.67;;
60700;SDS011;46541;49.894;10.886;2023-09-18T14:14:35;3.35;;;1.25;;
60700;SDS011;46541;49.894;10.886;2023-09-18T14:17:02;3.50;;;1.67;;
60700;SDS011;46541;49.894;10.886;2023-09-18T14:19:32;5.03;;;1.10;;
60700;SDS011;46541;49.894;10.886;2023-09-18T14:21:58;3.85;;;1.42;;
60700;SDS011;46541;49.894;10.886;2023-09-18T14:24:30;5.40;;;1.52;;
60700;SDS011;46541;49.894;10.886;2023-09-18T14:26:57;3.08;;;1.20;;
60700;SDS011;46541;49.894;10.886;2023-09-18T14:29:25;3.05;;;1.60;;
60700;SDS011;46541;49.894;10.886;2023-09-18T14:31:52;4.45;;;2.05;;
60700;SDS011;46541;49.894;10.886;2023-09-18T14:34:19;3.30;;;1.35;;
60700;SDS011;46541;49.894;10.886;2023-09-18T14:36:46;9.43;;;1.30;;
60700;SDS011;46541;49.894;10.886;2023-09-18T14:39:14;4.35;;;1.83;;
60700;SDS011;46541;49.894;10.886;2023-09-18T14:41:41;4.55;;;1.52;;
60700;SDS011;46541;49.894;10.886;2023-09-18T14:44:08;6.32;;;1.58;;
60700;SDS011;46541;49.894;10.886;2023-09-18T14:46:36;2.53;;;1.27;;
60700;SDS011;46541;49.894;10.886;2023-09-18T14:49:04;3.75;;;1.40;;
60700;SDS011;46541;49.894;10.886;2023-09-18T14:51:31;3.22;;;1.40;;
60700;SDS011;46541;49.894;10.886;2023-09-18T14:53:58;4.72;;;1.40;;
60700;SDS011;46541;49.894;10.886;2023-09-18T14:56:26;3.25;;;1.30;;
60700;SDS011;46541;49.894;10.886;2023-09-18T14:58:53;5.53;;;2.08;;
60700;SDS011;46541;49.894;10.886;2023-09-18T15:01:21;3.13;;;1.10;;
60700;SDS011;46541;49.894;10.886;2023-09-18T15:03:48;3.35;;;1.10;;
60700;SDS011;46541;49.894;10.886;2023-09-18T15:06:16;3.67;;;1.40;;
60700;SDS011;46541;49.894;10.886;2023-09-18T15:08:43;3.17;;;1.40;;